createdAt,value
2023-05-21T00:01:23.921Z,56.86
2023-05-21T00:03:50.682Z,57.19
2023-05-21T00:06:17.264Z,57.08
2023-05-21T00:08:43.733Z,57.23
2023-05-21T00:11:10.406Z,57.26
2023-05-21T00:13:36.866Z,57.08
2023-05-21T00:16:03.355Z,57.26
2023-05-21T00:18:32.162Z,57.13
2023-05-21T00:20:59.257Z,57.23
2023-05-21T00:23:26.358Z,57.48
2023-05-21T00:25:53.299Z,57.42
2023-05-21T00:28:19.737Z,57.47
2023-05-21T00:30:47.215Z,57.43
2023-05-21T00:33:13.831Z,57.44
2023-05-21T00:35:40.366Z,57.63
2023-05-21T00:38:08.391Z,57.23
2023-05-21T00:40:36.118Z,57.51
2023-05-21T00:43:02.649Z,57.33
2023-05-21T00:45:29.500Z,57.34
2023-05-21T00:47:56.334Z,57.54
2023-05-21T00:50:23.471Z,57.43
2023-05-21T00:52:50.153Z,57.66
2023-05-21T00:55:16.845Z,57.47
2023-05-21T00:57:45.936Z,57.63
2023-05-21T01:00:14.611Z,57.61
2023-05-21T01:02:42.142Z,57.95
2023-05-21T01:05:09.711Z,57.88
2023-05-21T01:07:39.108Z,57.78
2023-05-21T01:10:08.300Z,57.57
2023-05-21T01:12:35.533Z,57.74
2023-05-21T01:15:03.972Z,58.03
2023-05-21T01:17:31.651Z,57.93
2023-05-21T01:19:59.301Z,57.96
2023-05-21T01:22:30.747Z,58.07
2023-05-21T01:24:57.198Z,58.14
2023-05-21T01:27:23.689Z,58.03
2023-05-21T01:29:50.330Z,57.94
2023-05-21T01:32:41.459Z,58.10
2023-05-21T01:35:21.696Z,57.93
2023-05-21T01:37:55.670Z,58.16
2023-05-21T01:40:27.852Z,58.05
2023-05-21T01:42:54.380Z,58.16
2023-05-21T01:45:23.810Z,58.38
2023-05-21T01:47:53.954Z,58.27
2023-05-21T01:50:24.519Z,58.40
2023-05-21T01:52:58.462Z,58.51
2023-05-21T01:55:25.304Z,58.63
2023-05-21T01:57:53.392Z,58.55
2023-05-21T02:00:25.389Z,58.67
2023-05-21T02:02:52.033Z,58.65
2023-05-21T02:05:18.600Z,58.49
2023-05-21T02:07:46.145Z,58.69
2023-05-21T02:10:12.730Z,58.60
2023-05-21T02:12:39.212Z,58.72
2023-05-21T02:15:06.486Z,58.83
2023-05-21T02:17:34.141Z,58.77
2023-05-21T02:20:10.952Z,58.85
2023-05-21T02:22:47.950Z,58.78
2023-05-21T02:25:16.293Z,58.96
2023-05-21T02:27:43.594Z,59.00
2023-05-21T02:30:12.695Z,58.78
2023-05-21T02:32:42.487Z,59.14
2023-05-21T02:35:11.235Z,59.19
2023-05-21T02:37:40.202Z,59.01
2023-05-21T02:40:07.820Z,59.02
2023-05-21T02:42:34.517Z,59.00
2023-05-21T02:45:00.953Z,59.44
2023-05-21T02:47:27.432Z,59.36
2023-05-21T02:49:54.302Z,59.30
2023-05-21T02:52:22.509Z,59.61
2023-05-21T02:54:49.148Z,59.66
2023-05-21T02:57:15.744Z,59.69
2023-05-21T02:59:42.157Z,59.57
2023-05-21T03:02:08.621Z,59.64
2023-05-21T03:04:38.817Z,59.53
2023-05-21T03:07:06.018Z,59.73
2023-05-21T03:09:32.556Z,59.52
2023-05-21T03:11:59.095Z,59.94
2023-05-21T03:14:25.563Z,59.73
2023-05-21T03:16:52.017Z,59.82
2023-05-21T03:19:18.510Z,59.81
2023-05-21T03:21:45.112Z,59.95
2023-05-21T03:24:13.653Z,59.83
2023-05-21T03:26:40.229Z,59.97
2023-05-21T03:29:07.132Z,60.21
2023-05-21T03:31:35.561Z,60.41
2023-05-21T03:34:10.396Z,60.36
2023-05-21T03:36:36.830Z,60.28
2023-05-21T03:39:04.363Z,60.47
2023-05-21T03:41:33.262Z,60.62
2023-05-21T03:44:06.472Z,60.55
2023-05-21T03:46:45.572Z,60.70
2023-05-21T03:49:20.487Z,60.75
2023-05-21T03:51:49.156Z,60.74
2023-05-21T03:54:17.631Z,60.79
2023-05-21T03:56:44.513Z,60.91
2023-05-21T03:59:11.509Z,60.78
2023-05-21T04:01:38.987Z,60.74
2023-05-21T04:04:06.841Z,61.05
2023-05-21T04:06:33.357Z,61.05
2023-05-21T04:08:59.785Z,60.82
2023-05-21T04:11:26.232Z,60.89
2023-05-21T04:13:52.784Z,60.92
2023-05-21T04:16:19.586Z,61.03
2023-05-21T04:18:46.984Z,61.20
2023-05-21T04:21:15.229Z,61.07
2023-05-21T04:23:41.710Z,61.29
2023-05-21T04:26:16.209Z,61.04
2023-05-21T04:28:42.762Z,61.22
2023-05-21T04:31:09.549Z,61.52
2023-05-21T04:33:36.064Z,61.20
2023-05-21T04:36:03.821Z,61.66
2023-05-21T04:38:30.685Z,61.70
2023-05-21T04:40:58.665Z,61.28
2023-05-21T04:43:28.122Z,61.53
2023-05-21T04:45:59.929Z,61.23
2023-05-21T04:48:29.369Z,61.56
2023-05-21T04:50:56.663Z,61.62
2023-05-21T04:53:25.827Z,61.52
2023-05-21T04:55:52.341Z,61.92
2023-05-21T04:58:19.543Z,61.61
2023-05-21T05:00:47.476Z,61.66
2023-05-21T05:03:15.191Z,61.65
2023-05-21T05:05:43.190Z,61.72
2023-05-21T05:08:09.809Z,61.93
2023-05-21T05:10:36.668Z,61.91
2023-05-21T05:13:03.591Z,61.70
2023-05-21T05:15:30.132Z,61.65
2023-05-21T05:17:57.038Z,61.89
2023-05-21T05:20:23.581Z,62.05
2023-05-21T05:22:50.813Z,61.95
2023-05-21T05:25:17.349Z,62.20
2023-05-21T05:27:44.727Z,62.32
2023-05-21T05:30:11.703Z,62.15
2023-05-21T05:32:38.314Z,62.13
2023-05-21T05:35:05.941Z,62.09
2023-05-21T05:37:33.575Z,61.95
2023-05-21T05:40:00.139Z,62.17
2023-05-21T05:42:27.325Z,62.15
2023-05-21T05:44:54.083Z,62.06
2023-05-21T05:47:21.731Z,62.10
2023-05-21T05:49:48.266Z,61.95
2023-05-21T05:52:15.094Z,61.89
2023-05-21T05:54:41.534Z,62.05
2023-05-21T05:57:08.796Z,61.94
2023-05-21T05:59:35.861Z,61.73
2023-05-21T06:02:04.684Z,62.06
2023-05-21T06:04:31.352Z,61.84
2023-05-21T06:06:57.862Z,61.94
2023-05-21T06:09:24.536Z,61.90
2023-05-21T06:11:51.331Z,61.50
2023-05-21T06:14:17.806Z,61.75
2023-05-21T06:16:44.260Z,61.89
2023-05-21T06:19:10.861Z,61.53
2023-05-21T06:21:37.902Z,61.68
2023-05-21T06:24:05.666Z,61.73
2023-05-21T06:26:32.302Z,61.88
2023-05-21T06:28:59.589Z,61.59
2023-05-21T06:31:26.052Z,61.77
2023-05-21T06:33:53.776Z,61.79
2023-05-21T06:36:20.330Z,61.79
2023-05-21T06:38:47.781Z,61.62
2023-05-21T06:41:14.217Z,61.42
2023-05-21T06:43:53.519Z,61.55
2023-05-21T06:46:38.558Z,61.42
2023-05-21T06:49:07.941Z,61.59
2023-05-21T06:51:34.753Z,61.63
2023-05-21T06:54:02.503Z,61.71
2023-05-21T06:56:29.185Z,61.26
2023-05-21T06:58:55.920Z,61.40
2023-05-21T07:01:23.430Z,61.30
2023-05-21T07:03:50.042Z,61.15
2023-05-21T07:06:16.782Z,61.60
2023-05-21T07:08:43.492Z,61.27
2023-05-21T07:11:10.066Z,60.69
2023-05-21T07:13:37.124Z,60.98
2023-05-21T07:16:03.802Z,60.58
2023-05-21T07:18:31.135Z,60.67
2023-05-21T07:20:57.707Z,60.08
2023-05-21T07:23:24.909Z,59.67
2023-05-21T07:25:51.446Z,59.83
2023-05-21T07:28:18.825Z,59.81
2023-05-21T07:30:45.452Z,59.90
2023-05-21T07:33:16.281Z,59.90
2023-05-21T07:35:42.977Z,59.64
2023-05-21T07:38:09.453Z,60.11
2023-05-21T07:40:35.917Z,60.02
2023-05-21T07:43:03.346Z,59.25
2023-05-21T07:45:30.986Z,59.06
2023-05-21T07:47:57.707Z,58.44
2023-05-21T07:50:25.594Z,58.60
2023-05-21T07:52:52.484Z,58.63
2023-05-21T07:55:20.093Z,57.83
2023-05-21T07:57:47.052Z,58.01
2023-05-21T08:00:16.129Z,58.12
2023-05-21T08:02:46.853Z,58.58
2023-05-21T08:05:16.285Z,58.18
2023-05-21T08:07:43.316Z,58.05
2023-05-21T08:10:09.976Z,57.57
2023-05-21T08:12:36.608Z,56.85
2023-05-21T08:15:04.641Z,56.56
2023-05-21T08:17:32.681Z,56.95
2023-05-21T08:19:59.791Z,56.92
2023-05-21T08:22:27.348Z,56.53
2023-05-21T08:24:54.385Z,56.51
2023-05-21T08:27:21.205Z,57.10
2023-05-21T08:29:47.660Z,56.49
2023-05-21T08:32:14.192Z,56.21
2023-05-21T08:34:40.840Z,56.53
2023-05-21T08:37:21.280Z,56.57
2023-05-21T08:40:06.417Z,57.63
2023-05-21T08:42:45.952Z,57.06
2023-05-21T08:45:22.290Z,56.82
2023-05-21T08:47:59.783Z,56.51
2023-05-21T08:50:31.576Z,56.71
2023-05-21T08:53:04.010Z,56.67
2023-05-21T08:55:38.836Z,56.70
2023-05-21T08:58:05.597Z,55.60
2023-05-21T09:00:32.224Z,55.48
2023-05-21T09:03:02.071Z,55.85
2023-05-21T09:05:32.395Z,55.56
2023-05-21T09:08:06.855Z,54.70
2023-05-21T09:10:52.403Z,54.74
2023-05-21T09:13:24.880Z,54.65
2023-05-21T09:15:51.613Z,54.38
2023-05-21T09:18:19.657Z,54.68
2023-05-21T09:20:53.997Z,54.11
2023-05-21T09:23:20.819Z,54.84
2023-05-21T09:25:48.845Z,55.53
2023-05-21T09:28:23.166Z,54.56
2023-05-21T09:30:53.989Z,54.01
2023-05-21T09:33:29.311Z,54.19
2023-05-21T09:35:56.108Z,54.07
2023-05-21T09:38:25.984Z,54.46
2023-05-21T09:40:55.740Z,54.93
2023-05-21T09:43:22.808Z,54.16
2023-05-21T09:45:54.031Z,53.81
2023-05-21T09:48:36.406Z,53.07
2023-05-21T09:51:07.861Z,53.08
2023-05-21T09:53:34.394Z,53.34
2023-05-21T09:56:00.868Z,53.21
2023-05-21T09:58:27.409Z,51.99
2023-05-21T10:00:54.246Z,52.83
2023-05-21T10:03:23.486Z,53.93
2023-05-21T10:05:53.514Z,52.49
2023-05-21T10:08:22.684Z,52.59
2023-05-21T10:10:49.548Z,52.44
2023-05-21T10:13:18.568Z,52.78
2023-05-21T10:15:50.110Z,52.30
2023-05-21T10:18:18.760Z,51.84
2023-05-21T10:20:46.130Z,51.66
2023-05-21T10:23:13.100Z,52.06
2023-05-21T10:25:40.046Z,52.90
2023-05-21T10:28:06.991Z,52.34
2023-05-21T10:30:34.770Z,51.62
2023-05-21T10:33:02.768Z,51.93
2023-05-21T10:35:29.783Z,51.08
2023-05-21T10:37:58.602Z,51.02
2023-05-21T10:40:25.078Z,51.29
2023-05-21T10:43:28.819Z,51.71
2023-05-21T10:46:15.011Z,52.04
2023-05-21T10:49:11.429Z,51.50
2023-05-21T10:52:18.334Z,51.64
2023-05-21T10:54:59.832Z,51.91
2023-05-21T10:57:47.802Z,51.42
2023-05-21T11:00:18.004Z,51.50
2023-05-21T11:02:45.624Z,51.14
2023-05-21T11:05:12.260Z,50.92
2023-05-21T11:07:58.559Z,51.44
2023-05-21T11:10:40.339Z,51.01
2023-05-21T11:13:07.729Z,50.88
2023-05-21T11:15:58.987Z,49.77
2023-05-21T11:18:45.812Z,51.00
2023-05-21T11:21:14.630Z,50.37
2023-05-21T11:24:01.324Z,50.32
2023-05-21T11:26:51.959Z,50.39
2023-05-21T11:29:19.922Z,50.27
2023-05-21T11:31:47.830Z,50.77
2023-05-21T11:34:28.333Z,51.08
2023-05-21T11:37:16.903Z,51.11
2023-05-21T11:39:47.388Z,50.39
2023-05-21T11:42:27.408Z,51.71
2023-05-21T11:44:57.095Z,51.35
2023-05-21T11:47:24.620Z,51.38
2023-05-21T11:49:51.012Z,51.13
2023-05-21T11:52:19.530Z,50.73
2023-05-21T11:54:51.681Z,50.60
2023-05-21T11:57:19.391Z,50.32
2023-05-21T11:59:46.780Z,50.61
2023-05-21T12:02:20.076Z,51.18
2023-05-21T12:04:48.558Z,50.28
2023-05-21T12:07:17.550Z,50.31
2023-05-21T12:09:51.137Z,50.55
2023-05-21T12:12:19.617Z,50.69
2023-05-21T12:14:47.822Z,51.11
2023-05-21T12:17:18.808Z,51.14
2023-05-21T12:19:46.518Z,50.79
2023-05-21T12:22:13.441Z,50.53
2023-05-21T12:24:39.852Z,51.30
2023-05-21T12:27:09.462Z,51.11
2023-05-21T12:29:48.598Z,51.77
2023-05-21T12:32:15.911Z,51.58
2023-05-21T12:34:46.886Z,51.97
2023-05-21T12:37:27.144Z,51.19
2023-05-21T12:39:55.368Z,51.73
2023-05-21T12:42:34.670Z,50.68
2023-05-21T12:45:08.300Z,51.74
2023-05-21T12:47:34.937Z,51.83
2023-05-21T12:50:03.000Z,50.62
2023-05-21T12:52:33.013Z,51.33
2023-05-21T12:55:00.423Z,50.42
2023-05-21T12:57:38.545Z,50.82
2023-05-21T13:00:06.916Z,50.78
2023-05-21T13:02:41.179Z,50.42
2023-05-21T13:05:10.006Z,50.58
2023-05-21T13:07:38.539Z,50.68
2023-05-21T13:10:06.663Z,50.55
2023-05-21T13:12:33.987Z,50.52
2023-05-21T13:15:02.055Z,50.86
2023-05-21T13:17:29.068Z,49.70
2023-05-21T13:20:16.642Z,50.33
2023-05-21T13:22:46.568Z,49.83
2023-05-21T13:25:18.781Z,49.51
2023-05-21T13:27:45.617Z,48.95
2023-05-21T13:30:12.189Z,49.49
2023-05-21T13:32:39.750Z,50.04
2023-05-21T13:35:07.199Z,49.11
2023-05-21T13:37:37.509Z,49.53
2023-05-21T13:40:05.729Z,49.68
2023-05-21T13:42:32.783Z,49.45
2023-05-21T13:44:59.256Z,49.29
2023-05-21T13:47:25.803Z,49.09
2023-05-21T13:49:52.566Z,49.22
2023-05-21T13:52:19.689Z,49.14
2023-05-21T13:54:46.091Z,48.08
2023-05-21T13:57:12.545Z,48.24
2023-05-21T13:59:40.701Z,48.21
2023-05-21T14:02:08.865Z,48.40
2023-05-21T14:04:38.391Z,48.36
2023-05-21T14:07:05.761Z,48.99
2023-05-21T14:09:32.313Z,48.04
2023-05-21T14:11:58.714Z,47.91
2023-05-21T14:14:25.755Z,48.06
2023-05-21T14:16:52.299Z,48.66
2023-05-21T14:19:18.837Z,48.16
2023-05-21T14:21:45.297Z,48.56
2023-05-21T14:24:11.799Z,48.19
2023-05-21T14:26:41.237Z,48.30
2023-05-21T14:29:08.286Z,48.46
2023-05-21T14:31:35.004Z,48.70
2023-05-21T14:34:02.755Z,47.92
2023-05-21T14:36:29.715Z,48.46
2023-05-21T14:38:56.207Z,48.53
2023-05-21T14:41:29.082Z,47.84
2023-05-21T14:43:55.477Z,48.26
2023-05-21T14:46:22.143Z,48.48
2023-05-21T14:48:48.772Z,48.36
2023-05-21T14:51:15.296Z,47.34
2023-05-21T14:53:42.060Z,47.22
2023-05-21T14:56:08.747Z,48.06
2023-05-21T14:58:35.184Z,47.58
2023-05-21T15:01:04.012Z,47.45
2023-05-21T15:03:30.533Z,47.04
2023-05-21T15:05:58.384Z,47.30
2023-05-21T15:08:24.816Z,47.25
2023-05-21T15:10:51.206Z,47.54
2023-05-21T15:13:17.661Z,47.04
2023-05-21T15:15:44.623Z,47.08
2023-05-21T15:18:11.873Z,46.41
2023-05-21T15:20:38.681Z,46.46
2023-05-21T15:23:16.071Z,45.99
2023-05-21T15:25:44.274Z,46.66
2023-05-21T15:28:11.835Z,46.77
2023-05-21T15:30:38.268Z,46.43
2023-05-21T15:33:04.727Z,46.02
2023-05-21T15:35:31.286Z,46.24
2023-05-21T15:37:57.855Z,46.42
2023-05-21T15:40:26.236Z,46.26
2023-05-21T15:42:53.623Z,47.01
2023-05-21T15:45:20.350Z,46.19
2023-05-21T15:47:46.892Z,47.32
2023-05-21T15:50:13.365Z,47.15
2023-05-21T15:52:41.756Z,46.88
2023-05-21T15:55:08.723Z,46.86
2023-05-21T15:57:35.197Z,46.76
2023-05-21T16:00:01.853Z,46.45
2023-05-21T16:02:28.269Z,46.83
2023-05-21T16:04:54.904Z,46.64
2023-05-21T16:07:23.097Z,47.08
2023-05-21T16:09:49.600Z,46.87
2023-05-21T16:12:16.077Z,47.39
2023-05-21T16:14:42.471Z,46.50
2023-05-21T16:17:08.989Z,46.69
2023-05-21T16:19:35.609Z,46.46
2023-05-21T16:22:02.076Z,46.39
2023-05-21T16:24:28.487Z,46.57
2023-05-21T16:26:54.845Z,46.85
2023-05-21T16:29:22.103Z,46.66
2023-05-21T16:31:48.913Z,46.65
2023-05-21T16:34:15.654Z,47.15
2023-05-21T16:36:42.058Z,47.15
2023-05-21T16:39:08.582Z,47.03
2023-05-21T16:41:35.053Z,46.96
2023-05-21T16:44:01.477Z,47.11
2023-05-21T16:46:27.890Z,47.29
2023-05-21T16:48:54.320Z,47.38
2023-05-21T16:51:20.702Z,47.66
2023-05-21T16:53:47.085Z,47.68
2023-05-21T16:56:13.462Z,47.53
2023-05-21T16:58:39.896Z,47.75
2023-05-21T17:01:06.346Z,47.44
2023-05-21T17:03:33.131Z,47.54
2023-05-21T17:05:59.674Z,47.59
2023-05-21T17:08:26.134Z,47.62
2023-05-21T17:10:52.583Z,47.90
2023-05-21T17:13:22.565Z,47.84
2023-05-21T17:15:50.836Z,47.83
2023-05-21T17:18:17.465Z,47.86
2023-05-21T17:20:43.933Z,47.81
2023-05-21T17:23:11.543Z,47.84
2023-05-21T17:25:38.296Z,47.98
2023-05-21T17:28:05.109Z,47.99
2023-05-21T17:30:31.561Z,47.92
2023-05-21T17:32:58.316Z,48.20
2023-05-21T17:35:24.792Z,48.08
2023-05-21T17:37:53.126Z,47.88
2023-05-21T17:40:21.170Z,47.68
2023-05-21T17:42:47.589Z,47.54
2023-05-21T17:45:13.964Z,47.81
2023-05-21T17:47:40.516Z,47.59
2023-05-21T17:50:07.744Z,47.88
2023-05-21T17:52:34.115Z,47.80
2023-05-21T17:55:01.042Z,47.72
2023-05-21T17:57:27.469Z,47.88
2023-05-21T17:59:55.011Z,47.93
2023-05-21T18:02:23.310Z,47.99
2023-05-21T18:04:49.747Z,48.19
2023-05-21T18:07:16.507Z,48.11
2023-05-21T18:09:42.874Z,48.13
2023-05-21T18:12:09.328Z,48.35
2023-05-21T18:14:35.739Z,48.57
2023-05-21T18:17:02.406Z,48.51
2023-05-21T18:19:28.992Z,48.42
2023-05-21T18:21:56.559Z,48.52
2023-05-21T18:24:22.983Z,48.53
2023-05-21T18:26:49.376Z,48.78
2023-05-21T18:29:15.856Z,48.91
2023-05-21T18:31:44.894Z,48.98
2023-05-21T18:34:11.479Z,48.98
2023-05-21T18:36:40.963Z,48.96
2023-05-21T18:39:08.910Z,49.19
2023-05-21T18:41:36.051Z,49.22
2023-05-21T18:44:02.819Z,49.11
2023-05-21T18:46:29.506Z,49.13
2023-05-21T18:48:56.321Z,49.49
2023-05-21T18:51:22.807Z,49.50
2023-05-21T18:53:49.230Z,49.47
2023-05-21T18:56:15.768Z,49.68
2023-05-21T18:58:42.206Z,49.81
2023-05-21T19:01:08.654Z,49.94
2023-05-21T19:03:35.028Z,50.05
2023-05-21T19:06:01.445Z,49.95
2023-05-21T19:08:27.824Z,50.12
2023-05-21T19:10:54.283Z,50.12
2023-05-21T19:13:20.878Z,50.25
2023-05-21T19:15:48.337Z,50.39
2023-05-21T19:18:14.776Z,50.75
2023-05-21T19:20:41.219Z,50.76
2023-05-21T19:23:07.768Z,50.84
2023-05-21T19:25:34.452Z,50.84
2023-05-21T19:28:00.878Z,50.85
2023-05-21T19:30:27.449Z,51.26
2023-05-21T19:32:53.867Z,51.37
2023-05-21T19:35:20.566Z,51.31
2023-05-21T19:37:47.346Z,51.55
2023-05-21T19:40:13.803Z,51.68
2023-05-21T19:42:40.222Z,51.78
2023-05-21T19:45:09.676Z,51.81
2023-05-21T19:47:36.416Z,51.95
2023-05-21T19:50:03.429Z,51.88
2023-05-21T19:52:30.091Z,51.99
2023-05-21T19:55:04.145Z,52.30
2023-05-21T19:57:31.561Z,52.42
2023-05-21T19:59:58.711Z,52.53
2023-05-21T20:02:25.380Z,52.41
2023-05-21T20:04:53.329Z,52.71
2023-05-21T20:07:19.857Z,52.67
2023-05-21T20:09:46.474Z,52.58
2023-05-21T20:12:12.866Z,53.21
2023-05-21T20:14:39.454Z,53.21
2023-05-21T20:17:06.071Z,53.02
2023-05-21T20:19:32.737Z,53.57
2023-05-21T20:21:59.304Z,53.24
2023-05-21T20:24:25.893Z,53.30
2023-05-21T20:26:52.359Z,53.40
2023-05-21T20:29:18.725Z,53.14
2023-05-21T20:31:45.481Z,51.46
2023-05-21T20:34:12.281Z,50.46
2023-05-21T20:36:40.337Z,49.58
2023-05-21T20:39:07.419Z,49.39
2023-05-21T20:41:37.465Z,49.48
2023-05-21T20:44:05.116Z,48.75
2023-05-21T20:46:38.136Z,48.23
2023-05-21T20:49:05.115Z,48.45
2023-05-21T20:51:31.590Z,48.68
2023-05-21T20:53:58.149Z,48.87
2023-05-21T20:56:40.771Z,49.20
2023-05-21T20:59:10.464Z,49.35
2023-05-21T21:01:37.848Z,49.47
2023-05-21T21:04:04.827Z,49.76
2023-05-21T21:06:31.689Z,49.92
2023-05-21T21:09:04.515Z,50.05
2023-05-21T21:11:31.113Z,49.96
2023-05-21T21:13:57.469Z,50.33
2023-05-21T21:16:23.919Z,50.66
2023-05-21T21:18:50.412Z,50.81
2023-05-21T21:21:16.828Z,51.26
2023-05-21T21:23:43.233Z,51.15
2023-05-21T21:26:09.678Z,51.59
2023-05-21T21:28:36.076Z,51.59
2023-05-21T21:31:02.685Z,51.93
2023-05-21T21:33:29.185Z,52.10
2023-05-21T21:35:55.595Z,52.34
2023-05-21T21:38:22.072Z,52.53
2023-05-21T21:40:48.790Z,52.48
2023-05-21T21:43:15.285Z,52.55
2023-05-21T21:45:41.709Z,53.21
2023-05-21T21:48:08.137Z,53.17
2023-05-21T21:50:34.590Z,53.22
2023-05-21T21:53:01.208Z,53.36
2023-05-21T21:55:27.716Z,53.46
2023-05-21T21:57:54.112Z,53.72
2023-05-21T22:00:20.899Z,53.81
2023-05-21T22:02:47.463Z,53.96
2023-05-21T22:05:16.829Z,54.21
2023-05-21T22:07:46.797Z,54.21
2023-05-21T22:10:15.010Z,54.52
2023-05-21T22:12:42.560Z,54.49
2023-05-21T22:15:17.800Z,54.75
2023-05-21T22:17:44.291Z,54.59
2023-05-21T22:20:11.270Z,55.02
2023-05-21T22:22:37.641Z,55.23
2023-05-21T22:25:04.299Z,55.18
2023-05-21T22:27:30.894Z,55.29
2023-05-21T22:29:57.248Z,55.40
2023-05-21T22:32:23.624Z,55.60
2023-05-21T22:34:50.000Z,55.79
2023-05-21T22:37:16.368Z,55.96
2023-05-21T22:39:42.713Z,55.98
2023-05-21T22:42:09.188Z,55.86
2023-05-21T22:44:35.664Z,56.02
2023-05-21T22:47:03.352Z,56.50
2023-05-21T22:49:32.487Z,56.42
2023-05-21T22:52:09.242Z,56.49
2023-05-21T22:54:36.058Z,56.37
2023-05-21T22:57:02.668Z,56.57
2023-05-21T22:59:29.565Z,56.57
2023-05-21T23:01:55.977Z,56.67
2023-05-21T23:04:35.658Z,56.70
2023-05-21T23:07:06.510Z,56.68
2023-05-21T23:09:32.922Z,56.93
2023-05-21T23:11:59.343Z,56.91
2023-05-21T23:14:25.731Z,57.08
2023-05-21T23:16:53.824Z,57.28
2023-05-21T23:19:21.147Z,57.28
2023-05-21T23:21:47.682Z,57.49
2023-05-21T23:24:14.045Z,57.75
2023-05-21T23:26:40.682Z,58.06
2023-05-21T23:29:07.052Z,58.14
2023-05-21T23:31:33.534Z,58.57
2023-05-21T23:34:01.512Z,58.99
2023-05-21T23:36:27.894Z,59.20
2023-05-21T23:38:54.243Z,59.22
2023-05-21T23:41:20.848Z,60.04
2023-05-21T23:43:47.195Z,60.20
2023-05-21T23:46:13.674Z,60.99
2023-05-21T23:48:40.147Z,61.44
2023-05-21T23:51:06.742Z,61.83
2023-05-21T23:53:33.131Z,62.21
2023-05-21T23:55:59.493Z,62.24
2023-05-21T23:58:25.957Z,62.61
